createdAt,value
2018-03-31T00:01:18.468Z,84.40
2018-03-31T00:03:52.598Z,84.70
2018-03-31T00:06:26.529Z,84.10
2018-03-31T00:09:00.517Z,83.70
2018-03-31T00:11:34.433Z,85.00
2018-03-31T00:14:08.436Z,83.10
2018-03-31T00:16:42.549Z,83.90
2018-03-31T00:19:16.565Z,83.30
2018-03-31T00:21:50.322Z,83.40
2018-03-31T00:24:25.007Z,83.80
2018-03-31T00:26:58.906Z,83.80
2018-03-31T00:29:32.918Z,84.20
2018-03-31T00:32:06.881Z,84.00
2018-03-31T00:34:40.861Z,84.60
2018-03-31T00:37:14.846Z,84.30
2018-03-31T00:39:48.858Z,84.30
2018-03-31T00:42:22.869Z,84.70
2018-03-31T00:44:57.593Z,84.80
2018-03-31T00:47:31.485Z,84.70
2018-03-31T00:50:05.382Z,84.70
2018-03-31T00:52:39.294Z,84.80
2018-03-31T00:55:13.238Z,85.10
2018-03-31T00:57:47.141Z,85.10
2018-03-31T01:00:21.151Z,85.00
2018-03-31T01:02:55.257Z,84.90
2018-03-31T01:05:30.170Z,85.00
2018-03-31T01:08:04.064Z,84.90
2018-03-31T01:10:38.307Z,85.10
2018-03-31T01:13:12.025Z,85.20
2018-03-31T01:15:46.751Z,85.70
2018-03-31T01:18:20.765Z,85.60
2018-03-31T01:20:54.866Z,85.80
2018-03-31T01:23:28.792Z,86.30
2018-03-31T01:26:02.793Z,86.00
2018-03-31T01:28:36.666Z,86.00
2018-03-31T01:31:10.615Z,85.90
2018-03-31T01:33:44.632Z,86.50
2018-03-31T01:36:18.742Z,87.00
2018-03-31T01:38:52.639Z,86.60
2018-03-31T01:41:26.457Z,86.30
2018-03-31T01:44:00.466Z,86.50
2018-03-31T01:46:34.462Z,86.40
2018-03-31T01:49:08.486Z,86.50
2018-03-31T01:51:44.134Z,87.10
2018-03-31T01:54:18.154Z,87.00
2018-03-31T01:56:52.275Z,86.80
2018-03-31T01:59:26.485Z,87.10
2018-03-31T02:02:00.386Z,87.20
2018-03-31T02:04:35.090Z,86.50
2018-03-31T02:07:09.634Z,87.20
2018-03-31T02:09:43.657Z,87.20
2018-03-31T02:12:18.366Z,88.30
2018-03-31T02:14:52.286Z,87.70
2018-03-31T02:17:26.209Z,87.60
2018-03-31T02:20:00.214Z,87.40
2018-03-31T02:22:34.113Z,87.40
2018-03-31T02:25:08.130Z,87.40
2018-03-31T02:27:42.137Z,88.10
2018-03-31T02:30:15.951Z,87.80
2018-03-31T02:32:49.978Z,88.30
2018-03-31T02:35:23.970Z,88.50
2018-03-31T02:37:58.081Z,87.90
2018-03-31T02:40:32.199Z,88.10
2018-03-31T02:43:06.214Z,87.80
2018-03-31T02:45:40.118Z,87.70
2018-03-31T02:48:14.078Z,87.70
2018-03-31T02:50:48.239Z,87.90
2018-03-31T02:53:22.349Z,87.10
2018-03-31T02:55:56.370Z,87.00
2018-03-31T02:58:31.071Z,86.40
2018-03-31T03:01:05.202Z,86.30
2018-03-31T03:03:39.163Z,86.70
2018-03-31T03:06:13.225Z,86.80
2018-03-31T03:08:47.230Z,86.20
2018-03-31T03:11:21.274Z,86.00
2018-03-31T03:13:55.211Z,86.10
2018-03-31T03:16:28.962Z,86.00
2018-03-31T03:19:03.482Z,85.90
2018-03-31T03:21:37.290Z,85.80
2018-03-31T03:24:10.841Z,85.90
2018-03-31T03:26:44.421Z,85.80
2018-03-31T03:29:18.057Z,86.50
2018-03-31T03:31:51.890Z,86.00
2018-03-31T03:34:25.542Z,86.30
2018-03-31T03:36:59.118Z,86.00
2018-03-31T03:39:32.725Z,86.30
2018-03-31T03:42:06.363Z,86.80
2018-03-31T03:44:39.901Z,86.40
2018-03-31T03:47:13.616Z,87.20
2018-03-31T03:49:47.925Z,87.80
2018-03-31T03:52:22.550Z,86.80
2018-03-31T03:54:56.465Z,86.70
2018-03-31T03:57:30.274Z,87.00
2018-03-31T04:00:03.850Z,87.50
2018-03-31T04:02:37.504Z,87.90
2018-03-31T04:05:11.902Z,87.20
2018-03-31T04:07:45.454Z,87.10
2018-03-31T04:10:19.104Z,87.50
2018-03-31T04:12:54.341Z,87.10
2018-03-31T04:15:27.931Z,87.10
2018-03-31T04:18:01.653Z,87.20
2018-03-31T04:20:35.354Z,87.10
2018-03-31T04:23:09.770Z,86.70
2018-03-31T04:25:43.462Z,86.70
2018-03-31T04:28:18.002Z,86.80
2018-03-31T04:30:51.835Z,86.80
2018-03-31T04:33:25.719Z,87.00
2018-03-31T04:35:59.301Z,87.10
2018-03-31T04:38:33.025Z,87.10
2018-03-31T04:41:06.738Z,87.20
2018-03-31T04:43:40.311Z,87.70
2018-03-31T04:46:13.922Z,87.40
2018-03-31T04:48:47.522Z,87.30
2018-03-31T04:51:21.321Z,87.50
2018-03-31T04:53:55.042Z,87.80
2018-03-31T04:56:28.721Z,87.70
2018-03-31T04:59:02.332Z,87.50
2018-03-31T05:01:35.969Z,87.80
2018-03-31T05:04:09.572Z,87.40
2018-03-31T05:06:43.178Z,87.50
2018-03-31T05:09:16.773Z,87.90
2018-03-31T05:11:50.418Z,88.40
2018-03-31T05:14:23.974Z,88.30
2018-03-31T05:16:58.362Z,87.60
2018-03-31T05:19:32.038Z,88.10
2018-03-31T05:22:05.682Z,88.00
2018-03-31T05:24:39.381Z,88.00
2018-03-31T05:27:13.110Z,87.90
2018-03-31T05:29:46.697Z,87.90
2018-03-31T05:32:20.397Z,88.00
2018-03-31T05:34:54.054Z,87.70
2018-03-31T05:37:27.809Z,88.10
2018-03-31T05:40:01.522Z,88.10
2018-03-31T05:42:35.214Z,87.90
2018-03-31T05:45:08.818Z,87.90
2018-03-31T05:47:42.401Z,87.80
2018-03-31T05:50:16.167Z,87.60
2018-03-31T05:52:49.809Z,87.40
2018-03-31T05:55:23.510Z,87.90
2018-03-31T05:57:57.157Z,87.50
2018-03-31T06:00:30.829Z,87.50
2018-03-31T06:03:05.458Z,87.20
2018-03-31T06:05:39.262Z,87.10
2018-03-31T06:08:12.822Z,87.00
2018-03-31T06:10:47.232Z,86.10
2018-03-31T06:13:20.989Z,86.00
2018-03-31T06:15:54.693Z,86.40
2018-03-31T06:18:28.801Z,86.70
2018-03-31T06:21:02.643Z,86.50
2018-03-31T06:23:36.317Z,86.10
2018-03-31T06:26:09.958Z,87.10
2018-03-31T06:28:43.622Z,86.60
2018-03-31T06:31:17.327Z,86.60
2018-03-31T06:33:51.130Z,85.90
2018-03-31T06:36:24.994Z,86.10
2018-03-31T06:38:58.641Z,86.30
2018-03-31T06:41:32.446Z,85.50
2018-03-31T06:44:06.049Z,84.90
2018-03-31T06:46:39.765Z,84.80
2018-03-31T06:49:13.548Z,84.10
2018-03-31T06:51:48.086Z,80.40
2018-03-31T06:54:21.675Z,80.30
2018-03-31T06:56:55.445Z,78.50
2018-03-31T06:59:29.082Z,77.10
2018-03-31T07:02:02.694Z,76.60
2018-03-31T07:04:37.146Z,73.40
2018-03-31T07:07:10.908Z,73.40
2018-03-31T07:09:44.566Z,71.20
2018-03-31T07:12:18.946Z,69.80
2018-03-31T07:14:52.736Z,69.80
2018-03-31T07:17:26.389Z,69.30
2018-03-31T07:20:00.769Z,70.00
2018-03-31T07:22:34.362Z,70.00
2018-03-31T07:25:08.282Z,68.50
2018-03-31T07:27:41.880Z,64.00
2018-03-31T07:30:15.598Z,64.40
2018-03-31T07:32:49.217Z,61.80
2018-03-31T07:35:22.958Z,61.00
2018-03-31T07:37:56.690Z,59.60
2018-03-31T07:40:30.289Z,58.30
2018-03-31T07:43:03.845Z,56.30
2018-03-31T07:45:51.337Z,57.10
2018-03-31T07:48:25.742Z,55.40
2018-03-31T07:51:00.258Z,56.50
2018-03-31T07:53:34.053Z,56.50
2018-03-31T07:56:07.883Z,53.80
2018-03-31T07:58:41.546Z,52.90
2018-03-31T08:01:16.031Z,50.30
2018-03-31T08:03:49.623Z,50.20
2018-03-31T08:06:23.314Z,51.20
2018-03-31T08:08:57.018Z,49.40
2018-03-31T08:11:31.049Z,47.80
2018-03-31T08:14:04.750Z,50.40
2018-03-31T08:16:39.399Z,45.80
2018-03-31T08:19:13.055Z,45.70
2018-03-31T08:21:46.869Z,46.80
2018-03-31T08:24:20.442Z,44.70
2018-03-31T08:26:54.005Z,45.80
2018-03-31T08:29:49.784Z,45.80
2018-03-31T08:32:23.483Z,47.00
2018-03-31T08:34:57.205Z,45.90
2018-03-31T08:37:30.774Z,46.70
2018-03-31T08:40:04.522Z,44.60
2018-03-31T08:42:38.091Z,44.30
2018-03-31T08:45:11.718Z,45.90
2018-03-31T08:47:45.378Z,44.10
2018-03-31T08:50:20.866Z,44.60
2018-03-31T08:52:54.486Z,44.60
2018-03-31T08:55:28.053Z,43.30
2018-03-31T08:58:01.831Z,42.70
2018-03-31T09:00:35.558Z,43.40
2018-03-31T09:03:09.133Z,44.50
2018-03-31T09:05:42.873Z,43.40
2018-03-31T09:08:16.588Z,45.10
2018-03-31T09:10:50.386Z,44.00
2018-03-31T09:13:23.945Z,44.60
2018-03-31T09:15:57.631Z,44.20
2018-03-31T09:18:31.378Z,45.20
2018-03-31T09:21:05.802Z,44.10
2018-03-31T09:23:40.150Z,45.60
2018-03-31T09:26:13.838Z,45.60
2018-03-31T09:28:47.442Z,42.00
2018-03-31T09:31:21.037Z,41.70
2018-03-31T09:33:54.746Z,42.50
2018-03-31T09:36:28.297Z,41.70
2018-03-31T09:39:02.142Z,40.90
2018-03-31T09:41:35.858Z,41.80
2018-03-31T09:44:10.582Z,41.70
2018-03-31T09:46:44.197Z,41.60
2018-03-31T09:49:17.890Z,43.40
2018-03-31T09:51:51.489Z,44.70
2018-03-31T09:54:25.098Z,43.80
2018-03-31T09:56:58.726Z,43.10
2018-03-31T09:59:32.294Z,43.00
2018-03-31T10:02:05.997Z,41.50
2018-03-31T10:04:39.805Z,40.90
2018-03-31T10:07:13.545Z,42.10
2018-03-31T10:09:47.196Z,45.80
2018-03-31T10:12:20.948Z,38.50
2018-03-31T10:14:54.670Z,43.00
2018-03-31T10:17:28.285Z,40.30
2018-03-31T10:20:01.930Z,39.80
2018-03-31T10:22:35.637Z,40.70
2018-03-31T10:25:09.246Z,45.00
2018-03-31T10:27:42.894Z,42.40
2018-03-31T10:30:16.850Z,43.80
2018-03-31T10:32:50.453Z,41.50
2018-03-31T10:35:24.117Z,42.50
2018-03-31T10:37:57.722Z,42.70
2018-03-31T10:40:32.182Z,42.40
2018-03-31T10:43:05.777Z,42.40
2018-03-31T10:45:39.478Z,41.80
2018-03-31T10:48:13.038Z,41.70
2018-03-31T10:50:47.706Z,39.90
2018-03-31T10:53:21.486Z,40.10
2018-03-31T10:55:55.157Z,38.70
2018-03-31T10:58:28.829Z,38.90
2018-03-31T11:01:02.631Z,39.90
2018-03-31T11:03:36.354Z,37.80
2018-03-31T11:06:10.034Z,39.30
2018-03-31T11:08:44.370Z,40.40
2018-03-31T11:11:18.770Z,38.70
2018-03-31T11:13:52.390Z,38.70
2018-03-31T11:16:25.946Z,38.50
2018-03-31T11:18:59.677Z,38.40
2018-03-31T11:21:33.398Z,39.40
2018-03-31T11:24:07.102Z,40.50
2018-03-31T11:26:40.817Z,39.40
2018-03-31T11:29:14.398Z,42.60
2018-03-31T11:31:48.093Z,38.50
2018-03-31T11:34:21.906Z,39.50
2018-03-31T11:36:55.622Z,40.50
2018-03-31T11:39:30.046Z,41.30
2018-03-31T11:42:03.608Z,41.30
2018-03-31T11:44:37.263Z,40.70
2018-03-31T11:47:10.840Z,40.90
2018-03-31T11:49:44.422Z,41.30
2018-03-31T11:52:19.029Z,41.30
2018-03-31T11:54:52.757Z,38.60
2018-03-31T11:57:26.401Z,39.90
2018-03-31T12:00:00.157Z,38.50
2018-03-31T12:02:33.986Z,39.30
2018-03-31T12:05:07.582Z,40.60
2018-03-31T12:07:41.595Z,39.60
2018-03-31T12:10:15.302Z,39.80
2018-03-31T12:12:48.983Z,39.20
2018-03-31T12:15:22.760Z,39.00
2018-03-31T12:17:56.505Z,38.90
2018-03-31T12:20:30.069Z,38.60
2018-03-31T12:23:03.718Z,39.80
2018-03-31T12:25:37.298Z,38.90
2018-03-31T12:28:10.900Z,39.10
2018-03-31T12:30:44.682Z,39.20
2018-03-31T12:33:18.308Z,40.30
2018-03-31T12:35:51.981Z,40.10
2018-03-31T12:38:25.690Z,39.80
2018-03-31T12:40:59.406Z,39.80
2018-03-31T12:43:33.002Z,39.50
2018-03-31T12:46:06.731Z,39.60
2018-03-31T12:48:40.337Z,39.00
2018-03-31T12:51:14.172Z,40.00
2018-03-31T12:53:48.042Z,39.50
2018-03-31T12:56:21.674Z,40.00
2018-03-31T12:58:55.405Z,40.00
2018-03-31T13:01:29.042Z,40.30
2018-03-31T13:04:03.522Z,39.50
2018-03-31T13:06:37.190Z,39.40
2018-03-31T13:09:10.794Z,41.00
2018-03-31T13:11:44.454Z,40.10
2018-03-31T13:14:18.059Z,40.90
2018-03-31T13:16:51.738Z,40.90
2018-03-31T13:19:25.492Z,38.30
2018-03-31T13:21:59.314Z,38.50
2018-03-31T13:24:32.905Z,38.00
2018-03-31T13:27:08.274Z,38.70
2018-03-31T13:29:41.853Z,38.60
2018-03-31T13:32:15.486Z,38.70
2018-03-31T13:34:49.098Z,39.60
2018-03-31T13:37:22.702Z,39.60
2018-03-31T13:39:56.477Z,39.80
2018-03-31T13:42:30.046Z,39.90
2018-03-31T13:45:03.787Z,38.40
2018-03-31T13:47:37.686Z,39.00
2018-03-31T13:50:11.408Z,38.50
2018-03-31T13:52:45.199Z,41.00
2018-03-31T13:55:18.995Z,40.10
2018-03-31T13:57:52.599Z,39.40
2018-03-31T14:00:26.153Z,38.70
2018-03-31T14:03:00.039Z,38.10
2018-03-31T14:05:34.442Z,39.00
2018-03-31T14:08:08.150Z,38.90
2018-03-31T14:10:41.824Z,38.70
2018-03-31T14:13:15.652Z,39.30
2018-03-31T14:15:49.402Z,40.40
2018-03-31T14:18:23.869Z,39.50
2018-03-31T14:20:57.766Z,39.40
2018-03-31T14:23:31.382Z,39.70
2018-03-31T14:26:04.969Z,40.30
2018-03-31T14:28:39.341Z,39.70
2018-03-31T14:31:13.109Z,39.70
2018-03-31T14:33:47.014Z,38.80
2018-03-31T14:36:20.606Z,40.80
2018-03-31T14:38:54.261Z,40.70
2018-03-31T14:41:27.930Z,40.60
2018-03-31T14:44:02.550Z,39.90
2018-03-31T14:46:36.184Z,39.80
2018-03-31T14:49:09.862Z,40.40
2018-03-31T14:51:43.438Z,40.00
2018-03-31T14:54:17.033Z,40.50
2018-03-31T14:56:50.643Z,40.60
2018-03-31T14:59:24.981Z,40.80
2018-03-31T15:01:58.573Z,40.70
2018-03-31T15:04:32.217Z,40.30
2018-03-31T15:07:06.635Z,41.40
2018-03-31T15:09:40.422Z,41.40
2018-03-31T15:12:14.096Z,40.80
2018-03-31T15:14:47.686Z,40.60
2018-03-31T15:17:21.301Z,41.20
2018-03-31T15:19:55.022Z,41.10
2018-03-31T15:22:28.622Z,41.60
2018-03-31T15:25:02.229Z,40.60
2018-03-31T15:27:35.963Z,41.40
2018-03-31T15:30:09.663Z,40.80
2018-03-31T15:32:43.219Z,40.00
2018-03-31T15:35:16.938Z,40.80
2018-03-31T15:37:51.358Z,40.70
2018-03-31T15:40:24.922Z,40.30
2018-03-31T15:42:59.304Z,40.20
2018-03-31T15:45:32.974Z,40.20
2018-03-31T15:48:06.650Z,40.80
2018-03-31T15:50:41.406Z,40.80
2018-03-31T15:53:15.130Z,40.90
2018-03-31T15:55:49.422Z,41.20
2018-03-31T15:58:23.338Z,41.00
2018-03-31T16:00:58.286Z,40.70
2018-03-31T16:03:31.901Z,40.60
2018-03-31T16:06:05.533Z,40.30
2018-03-31T16:08:39.203Z,42.40
2018-03-31T16:11:12.993Z,42.10
2018-03-31T16:13:47.071Z,41.10
2018-03-31T16:16:20.670Z,41.90
2018-03-31T16:18:54.674Z,41.90
2018-03-31T16:21:29.126Z,42.20
2018-03-31T16:24:02.838Z,41.90
2018-03-31T16:26:36.767Z,42.40
2018-03-31T16:29:10.449Z,41.70
2018-03-31T16:31:44.164Z,41.30
2018-03-31T16:34:18.051Z,42.50
2018-03-31T16:36:51.654Z,42.10
2018-03-31T16:39:25.256Z,41.90
2018-03-31T16:41:58.858Z,43.10
2018-03-31T16:44:32.485Z,42.50
2018-03-31T16:47:06.276Z,42.60
2018-03-31T16:49:40.294Z,42.80
2018-03-31T16:52:14.250Z,47.10
2018-03-31T16:54:48.085Z,52.50
2018-03-31T16:57:22.530Z,54.40
2018-03-31T16:59:56.316Z,54.30
2018-03-31T17:02:30.459Z,54.90
2018-03-31T17:05:04.549Z,55.00
2018-03-31T17:07:38.886Z,56.60
2018-03-31T17:10:12.574Z,56.00
2018-03-31T17:12:46.194Z,56.50
2018-03-31T17:15:19.885Z,56.80
2018-03-31T17:17:53.734Z,57.00
2018-03-31T17:20:27.380Z,56.50
2018-03-31T17:23:01.135Z,56.50
2018-03-31T17:25:34.755Z,57.90
2018-03-31T17:28:08.462Z,57.70
2018-03-31T17:33:35.156Z,59.20
2018-03-31T17:36:09.789Z,61.00
2018-03-31T17:38:43.534Z,60.90
2018-03-31T17:41:17.306Z,61.20
2018-03-31T17:43:51.734Z,61.90
2018-03-31T17:46:25.562Z,61.90
2018-03-31T17:49:00.357Z,61.90
2018-03-31T17:51:33.882Z,62.30
2018-03-31T17:54:07.666Z,61.40
2018-03-31T17:56:41.482Z,61.60
2018-03-31T17:59:15.301Z,62.30
2018-03-31T18:01:48.894Z,62.50
2018-03-31T18:04:22.522Z,62.70
2018-03-31T18:06:57.119Z,62.70
2018-03-31T18:09:31.485Z,63.80
2018-03-31T18:12:05.338Z,63.50
2018-03-31T18:14:38.906Z,64.70
2018-03-31T18:17:12.470Z,65.80
2018-03-31T18:19:46.090Z,65.90
2018-03-31T18:22:19.818Z,66.20
2018-03-31T18:25:10.538Z,66.50
2018-03-31T18:27:45.295Z,67.00
2018-03-31T18:30:18.914Z,66.90
2018-03-31T18:32:52.536Z,67.00
2018-03-31T18:35:26.258Z,66.90
2018-03-31T18:37:59.862Z,67.20
2018-03-31T18:40:33.463Z,67.20
2018-03-31T18:43:07.297Z,67.20
2018-03-31T18:45:40.959Z,67.40
2018-03-31T18:48:15.530Z,67.00
2018-03-31T18:50:49.207Z,66.90
2018-03-31T18:53:22.936Z,67.40
2018-03-31T18:55:56.557Z,67.60
2018-03-31T18:58:30.233Z,67.60
2018-03-31T19:01:04.758Z,66.50
2018-03-31T19:03:38.333Z,66.40
2018-03-31T19:06:12.065Z,66.20
2018-03-31T19:08:45.988Z,66.60
2018-03-31T19:11:20.812Z,66.70
2018-03-31T19:13:55.309Z,66.30
2018-03-31T19:16:35.366Z,67.20
2018-03-31T19:19:09.649Z,67.10
2018-03-31T19:21:44.019Z,66.80
2018-03-31T19:24:17.722Z,66.70
2018-03-31T19:26:51.534Z,65.70
2018-03-31T19:29:25.246Z,65.80
2018-03-31T19:31:59.119Z,65.80
2018-03-31T19:34:32.744Z,65.90
2018-03-31T19:37:06.344Z,66.20
2018-03-31T19:39:45.377Z,66.30
2018-03-31T19:42:18.958Z,66.40
2018-03-31T19:44:53.406Z,66.40
2018-03-31T19:47:27.034Z,66.40
2018-03-31T19:50:01.502Z,67.10
2018-03-31T19:52:35.122Z,66.90
2018-03-31T19:55:08.746Z,68.20
2018-03-31T19:57:43.146Z,68.10
2018-03-31T20:00:16.918Z,68.00
2018-03-31T20:02:50.540Z,68.70
2018-03-31T20:05:24.138Z,68.80
2018-03-31T20:07:57.850Z,69.50
2018-03-31T20:10:31.458Z,69.80
2018-03-31T20:13:05.175Z,70.30
2018-03-31T20:15:38.962Z,69.90
2018-03-31T20:18:12.626Z,69.70
2018-03-31T20:20:46.294Z,70.00
2018-03-31T20:23:20.010Z,70.40
2018-03-31T20:26:03.342Z,70.60
2018-03-31T20:28:37.313Z,70.60
2018-03-31T20:34:19.299Z,71.50
2018-03-31T20:36:53.241Z,71.40
2018-03-31T20:39:26.936Z,71.80
2018-03-31T20:42:00.812Z,72.50
2018-03-31T20:44:34.546Z,71.90
2018-03-31T20:47:08.250Z,71.80
2018-03-31T20:49:41.923Z,72.00
2018-03-31T20:52:16.579Z,72.40
2018-03-31T20:54:50.247Z,72.30
2018-03-31T20:57:23.798Z,72.20
2018-03-31T20:59:57.606Z,72.30
2018-03-31T21:02:31.326Z,73.40
2018-03-31T21:05:04.913Z,72.70
2018-03-31T21:07:38.691Z,73.30
2018-03-31T21:10:12.285Z,72.60
2018-03-31T21:12:45.874Z,73.00
2018-03-31T21:15:19.631Z,72.90
2018-03-31T21:17:53.354Z,72.70
2018-03-31T21:20:27.139Z,72.30
2018-03-31T21:23:00.838Z,72.40
2018-03-31T21:25:34.546Z,73.10
2018-03-31T21:28:08.146Z,73.10
2018-03-31T21:30:41.949Z,73.70
2018-03-31T21:33:15.526Z,74.20
2018-03-31T21:35:49.170Z,73.40
2018-03-31T21:38:22.844Z,73.50
2018-03-31T21:40:56.570Z,73.60
2018-03-31T21:43:30.270Z,73.40
2018-03-31T21:46:03.880Z,73.70
2018-03-31T21:48:37.470Z,73.50
2018-03-31T21:51:11.162Z,72.90
2018-03-31T21:53:44.878Z,72.80
2018-03-31T21:56:19.281Z,72.90
2018-03-31T21:58:53.205Z,72.90
2018-03-31T22:01:27.014Z,72.70
2018-03-31T22:04:00.618Z,72.80
2018-03-31T22:06:34.237Z,72.20
2018-03-31T22:09:08.631Z,69.30
2018-03-31T22:11:42.250Z,69.20
2018-03-31T22:14:21.565Z,69.00
2018-03-31T22:16:55.369Z,68.70
2018-03-31T22:19:29.086Z,68.30
2018-03-31T22:22:03.720Z,68.60
2018-03-31T22:24:37.626Z,68.50
2018-03-31T22:27:11.442Z,69.00
2018-03-31T22:29:45.126Z,68.90
2018-03-31T22:32:18.825Z,68.50
2018-03-31T22:34:52.378Z,69.40
2018-03-31T22:37:26.137Z,70.60
2018-03-31T22:39:59.886Z,70.60
2018-03-31T22:42:33.541Z,70.10
2018-03-31T22:45:07.358Z,70.50
2018-03-31T22:47:41.062Z,71.40
2018-03-31T22:50:14.643Z,71.60
2018-03-31T22:52:48.233Z,71.40
2018-03-31T22:55:21.946Z,72.10
2018-03-31T22:57:55.534Z,73.00
2018-03-31T23:00:29.173Z,73.40
2018-03-31T23:03:02.970Z,71.20
2018-03-31T23:05:37.695Z,71.30
2018-03-31T23:08:11.706Z,71.30
2018-03-31T23:10:45.823Z,71.50
2018-03-31T23:13:19.668Z,71.10
2018-03-31T23:15:54.365Z,71.60
2018-03-31T23:18:28.673Z,71.50
2018-03-31T23:21:02.692Z,71.10
2018-03-31T23:23:36.922Z,72.10
2018-03-31T23:26:10.835Z,72.30
2018-03-31T23:28:44.755Z,72.70
2018-03-31T23:31:18.933Z,73.20
2018-03-31T23:33:53.047Z,73.50
2018-03-31T23:36:26.950Z,73.80
2018-03-31T23:39:00.720Z,74.20
2018-03-31T23:41:34.329Z,74.60
2018-03-31T23:44:08.698Z,73.80
2018-03-31T23:46:42.494Z,73.70
2018-03-31T23:49:16.194Z,74.60
2018-03-31T23:51:49.998Z,75.10
2018-03-31T23:54:23.806Z,75.80
2018-03-31T23:56:57.510Z,76.30
2018-03-31T23:59:31.249Z,77.30
